Time;durP1;ratioP1;P1;durP2;ratioP2;P2;SDS_P1;SDS_P2;PMS_P1;PMS_P2;Temp;Humidity;BMP_temperature;BMP_pressure;BME280_temperature;BME280_humidity;BME280_pressure;Samples;Min_cycle;Max_cycle;Signal;HPM_P1;HPM_P2
2023/09/02 00:02:21;;;;;;;8.25;3.97;;;;;;;21.31;81.53;100692.28;5089919;28;20028;-79
2023/09/02 00:04:46;;;;;;;7.72;4.03;;;;;;;21.36;80.87;100697.53;5071905;28;20028;-79
2023/09/02 00:07:12;;;;;;;5.78;3.63;;;;;;;21.42;80.07;100705.38;5071593;28;20027;-76
2023/09/02 00:09:37;;;;;;;4.70;4.00;;;;;;;21.26;81.89;100695.81;5072933;28;20024;-77
2023/09/02 00:12:03;;;;;;;7.35;3.90;;;;;;;21.08;82.35;100686.25;5087285;28;20134;-74
2023/09/02 00:14:28;;;;;;;7.30;3.58;;;;;;;21.09;80.01;100696.72;5089667;28;20039;-77
2023/09/02 00:16:54;;;;;;;6.88;3.63;;;;;;;20.93;80.71;100700.28;5090046;28;20035;-80
2023/09/02 00:19:21;;;;;;;5.97;3.63;;;;;;;20.84;79.64;100674.94;5089417;28;20039;-80
2023/09/02 00:21:47;;;;;;;4.93;3.35;;;;;;;20.86;80.34;100686.31;5089465;28;20028;-85
2023/09/02 00:24:12;;;;;;;6.55;3.50;;;;;;;20.84;79.77;100698.56;5071653;28;20498;-80
2023/09/02 00:26:37;;;;;;;4.97;3.70;;;;;;;20.81;78.38;100686.31;5070896;28;20604;-79
2023/09/02 00:29:03;;;;;;;5.97;3.30;;;;;;;20.63;79.25;100708.16;5071573;28;20063;-80
2023/09/02 00:31:30;;;;;;;6.35;3.92;;;;;;;20.41;79.75;100673.22;5071559;28;20028;-83
2023/09/02 00:33:55;;;;;;;4.90;3.35;;;;;;;20.47;80.55;100699.44;5089537;28;20036;-78
2023/09/02 00:36:21;;;;;;;5.50;3.90;;;;;;;20.21;81.29;100688.91;5070985;28;20027;-79
2023/09/02 00:38:48;;;;;;;5.90;3.90;;;;;;;20.20;81.85;100693.31;5071446;28;20128;-79
2023/09/02 00:41:25;;;;;;;5.53;4.03;;;;;;;20.19;81.74;100694.16;5088241;28;20024;-78
2023/09/02 00:43:51;;;;;;;4.82;3.58;;;;;;;19.90;83.77;100701.13;5071335;28;20020;-84
2023/09/02 00:46:16;;;;;;;5.50;4.18;;;;;;;19.94;84.71;100697.63;5071408;28;20119;-77
2023/09/02 00:48:42;;;;;;;5.82;4.40;;;;;;;19.82;85.18;100696.69;5071084;28;20426;-79
2023/09/02 00:51:09;;;;;;;5.45;4.05;;;;;;;19.86;85.45;100698.50;5071537;28;20471;-78
2023/09/02 00:53:34;;;;;;;8.88;4.30;;;;;;;19.56;86.15;100688.75;5088959;28;20136;-79
2023/09/02 00:56:01;;;;;;;5.50;3.65;;;;;;;19.69;85.43;100705.41;5089543;28;20111;-78
2023/09/02 00:58:27;;;;;;;6.70;3.60;;;;;;;19.69;84.78;100698.41;5089221;28;20486;-77
2023/09/02 01:00:54;;;;;;;6.95;4.22;;;;;;;19.61;85.53;100691.41;5071358;28;20043;-80
2023/09/02 01:03:19;;;;;;;6.15;4.10;;;;;;;19.52;85.62;100664.31;5087836;28;20449;-80
2023/09/02 01:05:45;;;;;;;5.85;3.85;;;;;;;19.93;83.92;100683.66;5089352;28;20028;-81
2023/09/02 01:08:11;;;;;;;5.32;3.92;;;;;;;20.08;83.78;100697.66;5070902;28;20398;-80
2023/09/02 01:10:37;;;;;;;5.55;3.50;;;;;;;19.67;84.52;100645.13;5071370;28;20028;-84
2023/09/02 01:13:03;;;;;;;8.35;4.07;;;;;;;19.82;84.07;100683.59;5071043;28;20034;-75
2023/09/02 01:15:30;;;;;;;5.40;3.75;;;;;;;19.91;82.76;100693.25;5089437;28;20032;-75
2023/09/02 01:17:56;;;;;;;5.57;4.00;;;;;;;19.92;83.69;100696.75;5089660;28;20032;-76
2023/09/02 01:20:31;;;;;;;5.75;4.18;;;;;;;20.02;84.14;100704.63;5089666;28;20471;-76
2023/09/02 01:23:17;;;;;;;5.10;4.00;;;;;;;19.80;85.41;100698.44;5071248;28;20452;-75
2023/09/02 01:26:11;;;;;;;6.25;4.05;;;;;;;19.76;85.29;100695.81;5088844;28;20453;-79
2023/09/02 01:28:40;;;;;;;6.82;4.40;;;;;;;19.85;84.54;100694.13;5089265;28;20023;-75
2023/09/02 01:31:09;;;;;;;5.20;4.25;;;;;;;19.70;83.72;100634.69;5089520;28;20028;-78
2023/09/02 01:33:36;;;;;;;;;;;;;;;20.34;82.32;100698.53;5075027;28;20024;-75
2023/09/02 01:36:03;;;;;;;6.53;4.45;;;;;;;20.48;83.47;100697.69;5093093;28;19916;-77
2023/09/02 01:38:31;;;;;;;7.10;4.97;;;;;;;20.29;84.43;100699.44;5092826;28;20024;-76
2023/09/02 01:41:00;;;;;;;7.43;4.50;;;;;;;20.18;84.41;100668.81;5074594;28;20028;-78
2023/09/02 01:43:27;;;;;;;5.63;4.45;;;;;;;20.37;85.04;100700.28;5049055;28;20043;-77
2023/09/02 01:45:53;;;;;;;5.40;4.57;;;;;;;20.51;84.16;100685.44;5049550;28;20045;-78
2023/09/02 01:48:19;;;;;;;6.93;4.70;;;;;;;20.25;83.70;100625.16;5049727;28;20112;-78
2023/09/02 01:50:46;;;;;;;5.97;4.60;;;;;;;20.62;82.89;100666.19;5049992;28;20029;-77
2023/09/02 01:53:11;;;;;;;7.35;4.90;;;;;;;20.76;81.87;100682.81;5049153;28;20040;-77
2023/09/02 01:55:57;;;;;;;6.22;4.82;;;;;;;20.48;83.76;100655.72;4989711;28;20042;-77
2023/09/02 01:58:23;;;;;;;10.52;4.93;;;;;;;20.32;85.90;100662.72;4990424;28;20046;-88
2023/09/02 02:00:49;;;;;;;8.40;5.07;;;;;;;20.22;86.40;100671.47;4973910;28;20126;-81
2023/09/02 02:03:20;;;;;;;7.18;4.90;;;;;;;20.35;84.81;100691.56;4990361;28;20053;-80
2023/09/02 02:05:52;;;;;;;8.48;4.70;;;;;;;20.24;86.28;100695.91;4973886;28;20564;-81
2023/09/02 02:08:29;;;;;;;6.82;5.22;;;;;;;20.08;87.08;100682.81;4989722;28;20066;-82
2023/09/02 02:10:58;;;;;;;8.70;5.28;;;;;;;20.03;87.02;100680.16;4989987;28;20218;-80
2023/09/02 02:13:23;;;;;;;13.38;5.38;;;;;;;19.98;87.68;100692.41;4972759;28;20562;-85
2023/09/02 02:15:49;;;;;;;16.05;5.25;;;;;;;19.58;88.59;100679.19;5009329;28;20421;-81
2023/09/02 02:18:14;;;;;;;8.38;5.03;;;;;;;19.37;89.82;100666.88;5008979;28;20042;-80
2023/09/02 02:21:09;;;;;;;7.90;4.85;;;;;;;19.53;89.69;100699.25;4993165;28;20049;-80
2023/09/02 02:23:35;;;;;;;6.63;4.85;;;;;;;18.92;90.02;100619.56;4931297;29;20435;-79
2023/09/02 02:26:04;;;;;;;6.00;4.43;;;;;;;19.02;90.11;100639.69;4918451;29;20035;-75
2023/09/02 02:28:30;;;;;;;6.75;4.70;;;;;;;19.26;90.16;100690.38;4951775;29;20503;-77
2023/09/02 02:30:58;;;;;;;6.47;4.88;;;;;;;19.10;91.15;100705.13;4951763;29;20094;-78
2023/09/02 02:33:25;;;;;;;9.30;5.57;;;;;;;18.69;91.71;100658.63;4951274;29;20055;-78
2023/09/02 02:35:50;;;;;;;7.68;5.45;;;;;;;18.82;91.63;100702.31;4951320;29;20271;-78
2023/09/02 02:38:16;;;;;;;6.28;5.32;;;;;;;18.83;92.33;100697.94;4951314;29;20560;-78
2023/09/02 02:40:41;;;;;;;8.65;5.68;;;;;;;18.74;92.58;100689.19;4951109;29;20051;-79
2023/09/02 02:43:07;;;;;;;8.05;5.60;;;;;;;18.75;92.53;100687.44;4934356;29;20110;-82
2023/09/02 02:45:32;;;;;;;8.43;5.13;;;;;;;18.74;93.23;100702.28;4951319;29;20043;-78
2023/09/02 02:47:58;;;;;;;7.78;5.28;;;;;;;18.11;94.65;100602.47;4950789;29;20043;-76
2023/09/02 02:50:23;;;;;;;7.20;5.28;;;;;;;18.57;95.56;100699.53;4963475;28;20217;-79
2023/09/02 02:52:50;;;;;;;9.85;5.82;;;;;;;18.60;95.67;100703.91;4989477;28;20050;-78
2023/09/02 02:55:15;;;;;;;8.13;5.80;;;;;;;18.55;96.39;100703.84;4989520;28;20117;-78
2023/09/02 02:57:41;;;;;;;8.05;5.57;;;;;;;18.46;96.83;100695.09;4989442;28;20541;-78
2023/09/02 03:00:09;;;;;;;11.73;6.07;;;;;;;18.20;97.08;100660.00;5023273;28;20503;-81
2023/09/02 03:02:35;;;;;;;12.70;5.88;;;;;;;18.51;96.32;100715.16;5051544;28;20472;-78
2023/09/02 03:05:01;;;;;;;11.73;5.30;;;;;;;18.17;96.00;100646.94;5050096;28;20120;-78
2023/09/02 03:07:27;;;;;;;8.20;6.35;;;;;;;18.59;95.93;100703.03;5051339;28;20385;-79
2023/09/02 03:09:55;;;;;;;12.15;6.00;;;;;;;18.06;95.44;100618.09;5051011;28;20462;-79
2023/09/02 03:12:21;;;;;;;9.20;5.88;;;;;;;18.34;95.55;100656.66;5050973;28;20056;-76
2023/09/02 03:14:47;;;;;;;12.00;6.25;;;;;;;18.76;94.95;100717.97;5051345;28;20064;-77
2023/09/02 03:17:13;;;;;;;9.35;5.47;;;;;;;18.62;94.42;100686.50;5050680;28;20476;-80
2023/09/02 03:19:44;;;;;;;7.93;4.90;;;;;;;18.75;94.73;100708.38;5066285;28;20036;-80
2023/09/02 03:22:09;;;;;;;9.32;5.00;;;;;;;18.28;95.04;100623.50;5051113;28;20388;-78
2023/09/02 03:24:34;;;;;;;7.05;5.20;;;;;;;18.74;95.49;100702.28;5051349;28;20025;-80
2023/09/02 03:27:00;;;;;;;10.15;5.32;;;;;;;18.73;95.48;100684.81;5049772;28;20070;-82
2023/09/02 03:29:25;;;;;;;9.80;5.97;;;;;;;18.73;96.14;100700.53;5051589;28;20035;-78
2023/09/02 03:31:51;;;;;;;13.07;5.40;;;;;;;18.85;95.96;100710.19;5051144;28;20032;-79
2023/09/02 03:34:16;;;;;;;8.10;5.18;;;;;;;18.92;95.72;100724.22;5050442;28;20029;-80
2023/09/02 03:36:41;;;;;;;9.57;5.35;;;;;;;18.86;96.14;100708.44;5066212;28;20056;-78
2023/09/02 03:39:07;;;;;;;7.53;5.20;;;;;;;19.00;95.61;100724.25;5050618;28;20029;-78
2023/09/02 03:41:33;;;;;;;8.07;5.57;;;;;;;19.01;95.28;100720.78;5050577;28;20477;-76
2023/09/02 03:43:59;;;;;;;9.23;5.18;;;;;;;18.56;95.18;100653.31;5066089;28;20377;-75
2023/09/02 03:46:25;;;;;;;8.73;5.65;;;;;;;18.88;95.14;100722.44;5027432;28;20147;-80
2023/09/02 03:48:51;;;;;;;9.18;5.28;;;;;;;18.94;94.36;100732.97;5028159;28;20451;-80
2023/09/02 03:51:16;;;;;;;8.57;5.53;;;;;;;18.91;94.16;100730.31;5030905;28;20048;-80
2023/09/02 03:53:43;;;;;;;9.95;4.93;;;;;;;18.89;94.35;100729.38;5047527;28;20060;-80
2023/09/02 03:56:09;;;;;;;9.52;5.40;;;;;;;18.94;94.21;100739.94;5047916;28;20045;-80
2023/09/02 03:58:35;;;;;;;10.35;5.65;;;;;;;18.89;94.40;100727.66;5031197;28;20036;-86
2023/09/02 04:01:01;;;;;;;7.97;5.72;;;;;;;18.78;94.43;100716.25;5047579;28;20040;-79
2023/09/02 04:03:28;;;;;;;12.43;6.15;;;;;;;18.82;93.78;100722.38;5031401;28;20021;-80
2023/09/02 04:05:54;;;;;;;9.80;5.28;;;;;;;18.92;93.58;100738.16;5047568;28;20041;-80
2023/09/02 04:08:21;;;;;;;9.00;5.45;;;;;;;18.81;93.29;100699.72;5047821;28;20032;-80
2023/09/02 04:10:52;;;;;;;6.80;5.35;;;;;;;18.73;93.80;100686.59;5031044;28;20440;-79
2023/09/02 04:13:24;;;;;;;7.32;5.43;;;;;;;19.13;94.39;100743.53;5047656;28;20036;-79
2023/09/02 04:15:53;;;;;;;9.65;6.30;;;;;;;19.07;95.23;100744.38;5047829;28;20136;-80
2023/09/02 04:18:19;;;;;;;10.50;6.50;;;;;;;19.00;95.93;100730.38;5063738;28;20036;-78
2023/09/02 04:20:44;;;;;;;9.43;6.03;;;;;;;18.72;96.38;100670.00;5070630;28;20038;-77
2023/09/02 04:23:10;;;;;;;9.25;6.03;;;;;;;19.04;96.83;100739.09;5070385;28;20070;-77
2023/09/02 04:25:52;;;;;;;10.15;6.70;;;;;;;19.06;96.92;100734.78;5070497;28;20025;-79
2023/09/02 04:28:19;;;;;;;10.88;6.47;;;;;;;19.19;96.66;100747.06;5069809;28;20098;-79
2023/09/02 04:30:45;;;;;;;15.00;6.50;;;;;;;18.78;96.37;100677.03;5070521;28;20032;-78
2023/09/02 04:33:12;;;;;;;7.80;6.18;;;;;;;19.26;97.27;100752.34;5068711;28;20472;-79
2023/09/02 04:35:45;;;;;;;7.25;6.18;;;;;;;19.35;97.79;100753.28;5070125;28;20108;-79
2023/09/02 04:38:11;;;;;;;8.90;6.47;;;;;;;19.31;98.13;100706.97;5068664;28;20029;-79
2023/09/02 04:40:40;;;;;;;11.45;6.78;;;;;;;19.38;98.52;100707.91;5069166;28;20052;-77
2023/09/02 04:43:07;;;;;;;10.40;7.18;;;;;;;19.65;96.79;100746.44;5068239;28;20487;-75
2023/09/02 04:45:36;;;;;;;10.63;6.97;;;;;;;19.78;96.01;100741.25;5070112;28;20091;-84
2023/09/02 04:48:03;;;;;;;10.27;6.88;;;;;;;19.86;95.78;100740.44;5068713;28;20029;-81
2023/09/02 04:50:30;;;;;;;7.30;6.40;;;;;;;19.45;95.52;100657.31;5070218;28;20039;-83
2023/09/02 04:52:56;;;;;;;9.30;7.00;;;;;;;20.02;94.19;100737.81;5073882;28;20129;-81
2023/09/02 04:55:25;;;;;;;11.35;6.97;;;;;;;20.24;93.06;100745.72;5089242;28;20028;-82
2023/09/02 04:57:58;;;;;;;11.18;7.35;;;;;;;20.26;92.08;100734.41;5071763;28;20036;-81
2023/09/02 05:00:25;;;;;;;9.68;7.32;;;;;;;20.28;91.69;100726.53;5071639;28;20039;-80
2023/09/02 05:02:51;;;;;;;11.68;7.13;;;;;;;20.36;90.45;100741.38;5090514;28;20038;-87
2023/09/02 05:05:18;;;;;;;12.23;7.13;;;;;;;20.39;91.26;100745.75;5090626;28;20075;-81
2023/09/02 05:07:44;;;;;;;10.30;7.55;;;;;;;20.41;90.41;100737.88;5075728;28;20487;-81
2023/09/02 05:10:11;;;;;;;8.65;6.43;;;;;;;20.58;89.60;100741.38;5075462;28;20024;-80
2023/09/02 05:12:37;;;;;;;9.90;6.30;;;;;;;20.39;89.49;100708.16;5075652;28;20096;-79
2023/09/02 05:15:03;;;;;;;8.02;6.03;;;;;;;20.50;88.24;100733.53;5093984;28;20032;-86
2023/09/02 05:17:31;;;;;;;12.93;6.40;;;;;;;20.53;87.21;100741.38;5093032;28;20120;-81
2023/09/02 05:19:56;;;;;;;7.03;5.50;;;;;;;20.22;87.21;100682.81;5070709;28;20024;-79
2023/09/02 05:22:22;;;;;;;9.65;5.63;;;;;;;20.55;87.39;100740.50;5088487;28;20028;-78
2023/09/02 05:24:48;;;;;;;11.95;5.47;;;;;;;20.26;88.22;100692.44;5092942;28;20423;-79
2023/09/02 05:27:13;;;;;;;11.82;6.28;;;;;;;20.41;89.13;100723.03;5092546;28;20024;-77
2023/09/02 05:29:39;;;;;;;8.00;6.10;;;;;;;20.42;88.45;100734.41;5065279;28;20024;-79
2023/09/02 05:32:05;;;;;;;8.13;6.63;;;;;;;20.34;88.96;100747.50;5082930;28;20035;-82
2023/09/02 05:34:30;;;;;;;8.32;6.72;;;;;;;20.37;89.44;100747.50;5092003;28;20502;-82
2023/09/02 05:36:57;;;;;;;8.00;5.90;;;;;;;19.99;90.66;100678.44;5091527;28;20043;-81
2023/09/02 05:39:24;;;;;;;8.95;6.20;;;;;;;20.31;89.26;100750.09;5055515;28;20047;-79
2023/09/02 05:41:51;;;;;;;12.57;6.05;;;;;;;20.37;90.78;100752.75;5092166;28;20024;-80
2023/09/02 05:44:17;;;;;;;12.40;6.68;;;;;;;20.45;91.94;100745.75;5070501;28;20903;-77
2023/09/02 05:46:42;;;;;;;21.48;6.53;;;;;;;20.52;91.26;100739.66;5072902;28;20030;-81
2023/09/02 05:49:09;;;;;;;24.35;7.80;;;;;;;20.63;90.64;100751.88;5092114;28;20106;-78
2023/09/02 05:51:35;;;;;;;8.70;5.80;;;;;;;20.76;90.43;100756.28;5092306;28;20034;-78
2023/09/02 05:54:00;;;;;;;12.10;6.40;;;;;;;20.87;88.88;100737.88;5089628;28;20399;-78
2023/09/02 05:56:26;;;;;;;11.05;6.28;;;;;;;21.01;88.65;100761.53;5092065;28;20470;-82
2023/09/02 05:58:51;;;;;;;14.60;6.80;;;;;;;20.94;88.84;100738.78;5092097;28;20073;-86
2023/09/02 06:01:16;;;;;;;11.02;7.53;;;;;;;21.07;88.04;100755.38;5092717;28;20103;-79
2023/09/02 06:03:42;;;;;;;11.02;7.28;;;;;;;21.25;87.91;100764.97;5074165;28;20043;-80
2023/09/02 06:06:11;;;;;;;11.80;7.15;;;;;;;21.03;87.90;100753.63;5092615;28;20027;-80
2023/09/02 06:08:37;;;;;;;14.18;9.80;;;;;;;21.11;87.89;100763.25;5074417;28;20027;-81
2023/09/02 06:11:03;;;;;;;15.35;8.70;;;;;;;21.13;87.68;100748.38;5092241;28;20040;-80
2023/09/02 06:13:28;;;;;;;10.98;7.63;;;;;;;21.29;88.52;100764.06;5082216;28;20028;-77
2023/09/02 06:16:02;;;;;;;13.05;6.97;;;;;;;21.38;88.09;100779.78;5091726;28;20410;-80
2023/09/02 06:18:28;;;;;;;9.98;6.20;;;;;;;21.39;86.51;100770.19;5086035;28;20020;-77
2023/09/02 06:20:53;;;;;;;8.68;5.68;;;;;;;21.54;84.87;100787.66;5088118;28;20406;-81
2023/09/02 06:23:19;;;;;;;10.80;6.18;;;;;;;21.68;84.94;100785.84;5084599;28;20032;-79
2023/09/02 06:25:45;;;;;;;8.30;6.40;;;;;;;21.76;85.99;100783.22;5086175;28;20101;-81
2023/09/02 06:28:10;;;;;;;10.48;6.70;;;;;;;21.83;84.97;100790.19;5091486;28;20032;-80
2023/09/02 06:30:36;;;;;;;12.38;5.85;;;;;;;21.90;83.55;100772.66;5091384;28;20016;-85
2023/09/02 06:33:03;;;;;;;6.90;5.90;;;;;;;21.70;84.01;100718.41;5091523;28;20036;-80
2023/09/02 06:35:31;;;;;;;11.10;5.82;;;;;;;22.21;84.80;100786.47;5092021;28;20104;-77
2023/09/02 06:37:57;;;;;;;7.60;5.22;;;;;;;22.16;82.21;100761.09;5073416;28;20040;-89
2023/09/02 06:40:22;;;;;;;6.60;5.25;;;;;;;22.39;81.88;100776.75;5047761;28;20037;-84
2023/09/02 06:42:47;;;;;;;6.85;5.50;;;;;;;22.55;82.15;100796.78;5048167;28;20205;-80
2023/09/02 06:45:13;;;;;;;7.30;4.78;;;;;;;22.73;77.27;100795.78;5048165;28;20490;-82
2023/09/02 06:47:40;;;;;;;8.70;4.93;;;;;;;23.03;76.40;100796.41;5048357;28;20025;-80
2023/09/02 06:50:06;;;;;;;7.03;4.47;;;;;;;23.14;75.85;100798.94;5048605;28;20051;-81
2023/09/02 06:52:32;;;;;;;9.90;4.63;;;;;;;23.30;75.13;100783.00;5031788;28;20447;-77
2023/09/02 06:54:57;;;;;;;6.95;4.60;;;;;;;23.37;74.71;100795.22;5048901;28;20192;-79
2023/09/02 06:57:24;;;;;;;8.85;5.25;;;;;;;23.47;74.73;100796.00;5046760;28;20044;-78
2023/09/02 06:59:51;;;;;;;7.68;5.32;;;;;;;23.66;74.93;100784.34;5045920;28;20068;-82
2023/09/02 07:02:20;;;;;;;7.38;5.20;;;;;;;23.76;73.62;100787.72;5033032;28;20032;-83
2023/09/02 07:04:49;;;;;;;11.27;5.93;;;;;;;23.84;71.94;100792.91;5031827;28;20528;-80
2023/09/02 07:07:16;;;;;;;8.32;5.60;;;;;;;23.78;72.82;100756.97;5048837;28;20033;-81
2023/09/02 07:09:41;;;;;;;8.55;6.07;;;;;;;24.05;72.84;100787.38;5047906;28;20029;-80
2023/09/02 07:12:07;;;;;;;8.98;5.95;;;;;;;24.32;71.35;100787.00;5068800;28;20403;-82
2023/09/02 07:14:33;;;;;;;8.63;5.53;;;;;;;24.50;69.27;100764.72;5072270;28;20404;-87
2023/09/02 07:16:59;;;;;;;10.02;5.97;;;;;;;24.70;68.56;100783.78;5090640;28;20064;-82
2023/09/02 07:19:25;;;;;;;12.32;6.57;;;;;;;24.78;69.23;100775.72;5071506;28;20087;-83
2023/09/02 07:21:50;;;;;;;7.72;5.50;;;;;;;24.97;65.10;100776.31;5072527;28;20035;-83
2023/09/02 07:24:16;;;;;;;11.15;6.45;;;;;;;25.19;66.49;100774.13;5090669;28;20026;-81
2023/09/02 07:26:41;;;;;;;11.70;6.18;;;;;;;25.32;66.96;100769.47;5083459;28;20085;-82
2023/09/02 07:29:07;;;;;;;10.52;5.72;;;;;;;25.43;67.10;100779.00;5071400;28;20509;-80
2023/09/02 07:31:33;;;;;;;15.98;7.00;;;;;;;25.51;66.78;100767.38;5084678;28;20031;-79
2023/09/02 07:33:59;;;;;;;23.23;6.70;;;;;;;25.68;63.43;100777.59;5089746;28;20504;-79
2023/09/02 07:36:24;;;;;;;15.30;5.75;;;;;;;25.86;62.06;100770.16;5064174;28;20031;-81
2023/09/02 07:38:50;;;;;;;17.35;5.18;;;;;;;25.89;65.77;100771.88;5090047;28;20031;-79
2023/09/02 07:41:17;;;;;;;22.25;6.22;;;;;;;26.03;60.90;100768.91;5090621;28;20031;-81
2023/09/02 07:43:42;;;;;;;11.88;4.85;;;;;;;26.24;61.21;100772.88;5077062;28;20459;-79
2023/09/02 07:46:10;;;;;;;11.15;4.20;;;;;;;26.34;61.18;100762.94;5071417;28;20043;-80
2023/09/02 07:48:35;;;;;;;6.90;4.05;;;;;;;26.51;60.03;100767.84;5062258;28;20036;-78
2023/09/02 07:51:01;;;;;;;17.17;5.00;;;;;;;26.47;60.87;100761.75;5053428;28;20032;-76
2023/09/02 07:53:28;;;;;;;18.13;8.82;;;;;;;26.60;58.94;100763.16;5076788;28;20132;-82
2023/09/02 07:55:53;;;;;;;7.43;4.22;;;;;;;26.73;60.00;100763.75;5077768;28;20179;-88
2023/09/02 07:58:19;;;;;;;10.05;3.58;;;;;;;26.87;60.06;100754.59;5072814;28;20048;-84
2023/09/02 08:00:45;;;;;;;9.52;3.97;;;;;;;27.05;59.54;100769.97;5051397;28;20203;-90
2023/09/02 08:03:11;;;;;;;12.35;4.90;;;;;;;27.10;57.55;100762.81;5047290;28;20484;-85
2023/09/02 08:05:41;;;;;;;7.45;3.47;;;;;;;27.15;56.18;100764.44;5058004;28;20103;-88
2023/09/02 08:08:07;;;;;;;12.50;4.78;;;;;;;27.23;58.00;100759.81;5043080;28;20098;-81
2023/09/02 08:10:33;;;;;;;5.43;3.22;;;;;;;27.26;56.82;100757.06;5061648;28;20411;-77
2023/09/02 08:12:59;;;;;;;4.55;3.25;;;;;;;27.23;55.26;100730.66;5049417;28;20028;-80
2023/09/02 08:15:25;;;;;;;7.63;3.60;;;;;;;27.33;55.01;100741.84;5045434;28;20045;-83
2023/09/02 08:17:51;;;;;;;8.18;3.78;;;;;;;27.49;55.13;100767.06;5049504;28;20028;-81
2023/09/02 08:20:17;;;;;;;9.60;4.32;;;;;;;27.55;55.37;100771.31;5067331;28;20041;-84
2023/09/02 08:22:43;;;;;;;5.03;3.42;;;;;;;27.65;56.65;100756.84;5059387;28;20052;-82
2023/09/02 08:25:10;;;;;;;9.18;3.58;;;;;;;27.86;54.93;100770.41;5050067;28;20546;-78
2023/09/02 08:27:36;;;;;;;7.55;4.05;;;;;;;27.97;51.54;100756.81;5033530;28;20045;-80
2023/09/02 08:30:03;;;;;;;5.40;3.45;;;;;;;27.93;52.39;100748.94;5046180;28;20057;-78
2023/09/02 08:32:30;;;;;;;5.03;3.10;;;;;;;28.12;52.56;100753.69;5043974;28;20060;-82
2023/09/02 08:34:56;;;;;;;6.57;3.33;;;;;;;28.02;53.00;100752.22;5047047;28;20127;-83
2023/09/02 08:37:42;;;;;;;10.93;4.47;;;;;;;28.24;52.80;100763.06;5019778;28;20648;-80
2023/09/02 08:40:08;;;;;;;7.85;3.72;;;;;;;27.70;50.24;100678.03;5006281;28;20555;-79
2023/09/02 08:42:35;;;;;;;7.00;3.33;;;;;;;28.37;49.75;100769.69;5028991;28;20037;-77
2023/09/02 08:45:08;;;;;;;5.82;2.60;;;;;;;28.46;47.01;100747.28;5031162;28;20025;-80
2023/09/02 08:47:34;;;;;;;8.82;3.05;;;;;;;28.66;44.70;100767.00;5030814;28;20041;-78
2023/09/02 08:50:02;;;;;;;7.82;3.60;;;;;;;28.47;46.46;100706.53;5031147;28;20468;-80
2023/09/02 08:52:27;;;;;;;12.55;4.50;;;;;;;28.81;48.45;100755.00;5031292;28;20039;-80
2023/09/02 08:54:54;;;;;;;7.25;3.30;;;;;;;28.96;47.62;100749.16;5013811;28;20128;-80
2023/09/02 08:57:21;;;;;;;5.63;3.10;;;;;;;29.07;47.04;100746.09;5030916;28;20044;-81
2023/09/02 08:59:47;;;;;;;5.90;3.30;;;;;;;29.13;43.60;100753.00;5030753;28;20033;-81
2023/09/02 09:02:13;;;;;;;6.70;3.50;;;;;;;29.17;46.37;100749.31;5030582;28;20408;-83
2023/09/02 09:04:39;;;;;;;25.05;5.20;;;;;;;28.88;48.39;100706.91;5014226;28;20033;-79
2023/09/02 09:07:06;;;;;;;12.82;4.10;;;;;;;29.17;47.04;100750.19;5029997;28;20029;-81
2023/09/02 09:09:36;;;;;;;4.07;3.00;;;;;;;29.36;45.85;100765.50;5013977;28;20036;-79
2023/09/02 09:12:04;;;;;;;17.58;4.00;;;;;;;29.44;46.22;100760.75;5012539;28;20036;-78
2023/09/02 09:14:36;;;;;;;24.53;4.17;;;;;;;29.46;44.38;100728.75;5030316;28;20187;-84
2023/09/02 09:17:04;;;;;;;16.45;4.65;;;;;;;29.53;45.16;100738.25;5013638;28;20108;-81
2023/09/02 09:19:30;;;;;;;6.82;3.40;;;;;;;29.76;46.97;100747.13;5030258;28;20172;-84
2023/09/02 09:21:57;;;;;;;6.07;3.40;;;;;;;29.78;45.97;100740.81;5013108;28;20124;-85
2023/09/02 09:24:22;;;;;;;13.23;3.60;;;;;;;30.01;45.65;100750.59;5027301;28;20614;-86
2023/09/02 09:26:49;;;;;;;10.55;3.92;;;;;;;30.06;43.63;100739.78;5030309;28;20077;-85
2023/09/02 09:29:17;;;;;;;13.32;4.00;;;;;;;29.98;47.37;100720.56;5014823;28;20489;-88
2023/09/02 09:31:43;;;;;;;10.23;4.10;;;;;;;30.04;43.92;100748.75;5064636;28;20055;-81
2023/09/02 09:34:10;;;;;;;6.43;3.30;;;;;;;29.99;47.36;100741.81;5070451;28;20143;-86
2023/09/02 09:36:36;;;;;;;9.07;3.50;;;;;;;30.04;44.60;100730.97;5069498;28;20024;-87
2023/09/02 09:39:07;;;;;;;4.45;3.38;;;;;;;30.09;43.63;100720.16;5072454;28;20036;-84
2023/09/02 09:41:35;;;;;;;5.30;3.13;;;;;;;30.32;43.13;100741.38;5070281;28;20060;-84
2023/09/02 09:44:15;;;;;;;5.40;3.22;;;;;;;30.03;43.76;100668.00;5073541;28;20031;-81
2023/09/02 09:46:43;;;;;;;8.77;3.67;;;;;;;30.18;43.45;100695.78;5073395;28;20026;-87
2023/09/02 09:49:28;;;;;;;14.80;6.57;;;;;;;30.27;43.82;100729.16;5083394;28;20024;-80
2023/09/02 09:52:00;;;;;;;10.13;4.35;;;;;;;30.14;45.65;100670.22;5030293;28;20118;-80
2023/09/02 09:54:40;;;;;;;4.47;3.10;;;;;;;30.55;41.60;100730.72;5076973;28;20108;-81
2023/09/02 09:57:09;;;;;;;14.00;3.90;;;;;;;30.64;46.52;100728.53;5074961;28;20024;-83
2023/09/02 09:59:34;;;;;;;;;;;;;;;30.78;42.92;100727.03;5078167;28;20078;-80
2023/09/02 10:02:04;;;;;;;5.47;2.90;;;;;;;30.89;40.90;100722.09;5075209;28;19916;-84
2023/09/02 10:04:31;;;;;;;12.88;3.67;;;;;;;31.02;41.08;100729.56;5074613;28;20035;-81
2023/09/02 10:07:01;;;;;;;11.70;4.50;;;;;;;31.16;42.97;100711.19;5074497;28;20023;-82
2023/09/02 10:09:46;;;;;;;6.47;2.95;;;;;;;31.34;40.51;100724.59;5049330;28;20128;-85
2023/09/02 10:12:13;;;;;;;3.92;2.90;;;;;;;31.34;42.35;100730.81;5048806;28;20099;-81
2023/09/02 10:14:48;;;;;;;6.15;2.97;;;;;;;31.33;40.07;100715.75;5032372;28;20187;-76
2023/09/02 10:17:16;;;;;;;10.63;3.88;;;;;;;31.45;43.04;100704.50;5049365;28;20032;-85
2023/09/02 10:19:43;;;;;;;9.82;4.10;;;;;;;31.55;43.19;100710.25;5049534;28;20523;-86
2023/09/02 10:22:14;;;;;;;5.93;3.03;;;;;;;31.65;42.64;100697.38;5047538;28;20048;-78
2023/09/02 10:25:05;;;;;;;6.75;3.05;;;;;;;31.53;40.56;100692.59;5046537;28;20048;-92
2023/09/02 10:27:37;;;;;;;4.25;2.63;;;;;;;31.70;42.22;100716.72;4988318;28;20046;-82
2023/09/02 10:30:27;;;;;;;6.05;2.70;;;;;;;31.62;41.11;100694.84;4994419;28;20034;-88
2023/09/02 10:32:59;;;;;;;5.55;2.72;;;;;;;31.60;38.44;100694.91;4937330;29;20043;-81
2023/09/02 10:35:28;;;;;;;6.07;2.92;;;;;;;31.88;38.50;100714.97;4950560;29;20066;-82
2023/09/02 10:37:56;;;;;;;4.43;2.50;;;;;;;31.97;39.75;100684.28;4949481;29;20527;-83
2023/09/02 10:40:27;;;;;;;6.80;3.22;;;;;;;31.78;37.21;100695.84;4931451;28;20034;-79
2023/09/02 10:42:54;;;;;;;8.60;3.38;;;;;;;31.78;37.13;100682.50;4983809;28;20036;-81
2023/09/02 10:45:20;;;;;;;4.60;2.60;;;;;;;31.85;39.34;100698.22;4972231;28;20042;-86
2023/09/02 10:47:49;;;;;;;4.38;2.42;;;;;;;32.00;36.82;100693.94;4973007;28;20581;-85
2023/09/02 10:50:18;;;;;;;8.88;3.13;;;;;;;32.10;35.11;100682.72;4961513;28;20039;-82
2023/09/02 10:52:44;;;;;;;11.93;3.40;;;;;;;32.05;35.84;100687.44;4953034;28;20039;-85
2023/09/02 10:55:11;;;;;;;8.85;3.00;;;;;;;32.16;35.34;100697.56;4953293;28;20033;-82
2023/09/02 10:57:57;;;;;;;8.23;3.15;;;;;;;32.30;33.74;100696.03;4969892;28;20035;-82
2023/09/02 11:00:24;;;;;;;8.48;3.42;;;;;;;32.51;33.69;100694.09;4971880;28;20034;-82
2023/09/02 11:02:52;;;;;;;16.45;3.47;;;;;;;32.66;34.71;100689.75;4971182;28;20561;-85
2023/09/02 11:05:18;;;;;;;10.25;3.30;;;;;;;32.89;33.26;100696.59;5036742;28;20037;-81
2023/09/02 11:07:44;;;;;;;6.30;2.67;;;;;;;32.86;32.22;100656.63;5031156;28;20425;-86
2023/09/02 11:10:12;;;;;;;4.05;2.50;;;;;;;32.97;31.51;100678.31;5041470;28;20029;-82
2023/09/02 11:13:06;;;;;;;7.88;2.80;;;;;;;32.94;35.46;100690.97;5047815;28;20037;-85
2023/09/02 11:15:36;;;;;;;13.88;3.63;;;;;;;32.91;34.08;100665.28;5034499;28;20507;-85
2023/09/02 11:18:28;;;;;;;8.00;3.15;;;;;;;33.06;30.59;100691.19;5044469;28;20071;-82
2023/09/02 11:20:53;;;;;;;19.77;7.38;;;;;;;32.99;31.58;100688.94;5040842;28;20775;-84
2023/09/02 11:23:22;;;;;;;12.48;4.95;;;;;;;32.88;32.77;100677.00;5046556;28;20075;-82
2023/09/02 11:26:00;;;;;;;6.60;3.42;;;;;;;33.04;33.16;100678.88;5048764;28;20112;-81
2023/09/02 11:28:26;;;;;;;5.07;3.17;;;;;;;32.99;32.61;100649.69;5046766;28;20032;-87